Create Custom Reports and Graphics: Custom Report

North/Central Map

Map

15 Minute Data

South County Map

Map

15 Minute Data

Northern Sonoma County Latest

25 Stations

15 Minute Data | America/Los_Angeles
as of 5/9/26 6:57 PM PDT
Station Date Time Temp (°F) RH (%) Dew Pt (°F) Wind Spd (mph) Wind Dir (°) Wind Gust (mph) Latest Rain (In) Daily Rain (In) Daily Max Temp (°F) Daily Min Temp (°F)
Bavarian Lion EFW 5/9/26 1845 78.8   2.4 - - - - - 0.00 0.00 85.1   4.3 47.0   4.7
Rockpile Lower (Cooley) 5/9/26 1830 73.9   3.8 35   0 44.8   3.0 6.7   4.8 NW | 304 16.4   3.5 0.00 0.00 84.5   6.8 53.4   6.8
Rockpile Upper (Cooley) 5/9/26 1845 69.2   2.9 40   0 43.6   2.6 17.9   1.7 NW | 321 25.6   1.1 0.00 0.00 80.9   4.2 50.9   7.4
Lower Dry Creek Valley 5/9/26 1845 74.0   1.1 54   1 56.2   0.6 5.0   0.3 SE | 144 9.4   0.5 0.00 0.00 82.1   3.4 46.9   2.5
Geyserville-South (Nervo Station) 5/9/26 1845 75.0   1.7 - - 3.5   0.2 S | 190 6.8   1.0 0.00 0.00 82.2   3.3 48.6   1.3
Franz Valley (Stornetta) 5/9/26 1845 80.6   3.4 41   8 55.0   2.0 1.7   0.1 NW | 304 4.6   0.4 0.00 0.00 82.4   3.3 45.4   5.6
Geyserville (Ranch 3) 5/9/26 1845 79.8   2.3 46   5 57.3   0.6 3.0   0.4 ESE | 104 5.5   0.1 0.00 0.00 85.0   4.2 48.5   1.1
Geyserville-North (Hoffman) 5/9/26 1845 80.6   1.4 50   5 60.3   1.3 3.3   0.1 ESE | 120 5.9   0.2 0.00 0.00 86.4   4.2 46.5   0.0
Knights Valley (Bavarian Lion) 5/9/26 1845 77.2   2.4 47   6 55.2   1.2 3.2   0.8 W | 262 6.0   0.9 0.00 0.00 83.3   4.4 46.3   4.7
HWY 128/Chalk Hill Rd (Landslide) 5/9/26 1800 78.8   2.5 46   6 56.5   1.3 4.6   0.5 SW | 214 8.3   0.4 0.00 0.00 83.1   3.9 46.5   6.0
Newman Knights Valley 5/9/26 1845 75.3   1.9 65   2 62.6   0.8 5.5   0.5 SW | 231 10.9   2.6 0.00 0.00 81.8   3.8 47.6   4.5
Jimtown-North (Piccolo Ranch 15) 5/9/26 1845 76.3   1.8 48   5 55.2   0.9 3.3   0.6 SSW | 206 6.6   0.0 0.00 0.00 83.7   3.4 46.4   4.1
Peterson (Ranch 09) 5/9/26 1845 74.4   1.5 51   2 55.0   0.2 6.3   0.8 S | 186 9.9   1.4 0.00 0.00 82.8   3.6 47.1   0.3
Cloverdale-SE (Ranch 38) 5/9/26 1845 80.8   3.2 38   1 53.1   3.8 5.6   0.1 WNW | 303 9.2   2.1 0.00 0.00 86.1   1.1 51.1   3.9
Geyserville-East (Ranch 40) 5/9/26 1830 75.2   2.7 55   7 57.7   1.0 7.3   1.2 SSW | 196 10.0   3.0 0.00 0.00 82.7   3.7 49.9   1.9
N Chalk Hill Rd (Ranch 63) 5/9/26 1845 75.4   2.0 50   4 55.4   0.1 4.8   0.0 S | 178 8.2   0.8 0.00 0.00 82.1   4.1 45.3   4.9
Cloverdale-East (Ranch 83) 5/9/26 1845 82.4   2.9 - - 4.4   0.7 NW | 313 9.2   0.9 0.00 0.00 88.8   2.4 47.9   2.1
Crazy Creek Ranch 5/9/26 1845 77.0   2.2 53   5 58.7   0.4 3.4   0.8 SW | 230 6.0   0.7 0.00 0.00 84.5   4.0 47.6   4.6
Lytton East (Hill 5) 5/9/26 1845 72.6   1.0 56   1 56.2   0.6 6.6   1.4 S | 183 10.0   1.2 0.00 0.00 81.7   4.0 47.2   0.3
Lytton East (Shop Hill Bottom) 5/9/26 1845 73.0   0.9 55   0 55.9   1.0 4.3   1.2 S | 176 8.1   0.3 0.00 0.00 81.3   3.2 45.2   1.4
Lytton West Hill (23PS) 5/9/26 1845 72.6   1.4 56   1 55.9   0.8 6.2   0.4 SSE | 161 9.7   0.9 0.00 0.00 81.2   3.2 48.0   2.0
Lytton West Lower (Lew 6) 5/9/26 1845 73.1   1.3 56   1 56.4   1.0 5.4   1.1 SSE | 165 9.3   1.1 0.00 0.00 82.3   3.7 44.4   3.5
Whitton Ranch (201e) 5/9/26 1845 76.5   1.0 51   0 57.1   0.8 3.9   0.3 S | 179 7.4   0.7 0.00 0.00 84.1   3.3 43.0   0.0
Upper Dry Creek Valley 5/9/26 1730 81.3   1.5 44   6 57.2   2.1 4.8   0.6 SSE | 152 9.7   0.9 0.00 0.00 84.3   2.8 45.8   1.0
Big River 5/9/26 1845 72.9   1.3 56   3 56.4   0.4 5.0   0.1 S | 175 9.1   0.7 0.00 0.00 81.0   3.7 48.4   0.8
Max     82.4 65 62.6 17.9 - 25.6 0.00 0.00 88.8 53.4
Avg     76.1 50 55.5 5.3 - 9.2 0.00 - - -
Min     69.2 35 43.6 1.7 - 4.6 0.00 0.00 80.9 43.0

Central Sonoma County Latest

37 Stations

15 Minute Data | America/Los_Angeles
as of 5/9/26 6:57 PM PDT
Station Date Time Temp (°F) RH (%) Dew Pt (°F) Wind Spd (mph) Wind Dir (°) Wind Gust (mph) Latest Rain (In) Daily Rain (In) Daily Max Temp (°F) Daily Min Temp (°F)
Windsor-NW (Ranch 8) 5/9/26 1845 70.3   0.6 65   1 58.1   1.0 2.6   0.4 SSE | 154 7.5   0.7 0.00 0.00 80.6   2.8 48.2   3.0
Windsor-East (Ranch 16) 5/9/26 1845 69.2   0.4 58   1 53.6   0.1 6.8   1.8 SSE | 155 11.7   2.8 0.00 0.00 78.4   3.5 45.2   6.8
Mark West-North (Ranch 14) 5/9/26 1845 67.8   1.9 60   3 53.3   0.5 4.0   0.2 SE | 139 8.9   1.6 0.00 0.00 77.6   3.1 47.0   4.8
Windsor-SE (Silk Rd) 5/9/26 1830 69.5   0.4 61   1 55.5   0.7 4.3   0.5 SE | 130 8.8   1.8 0.00 0.00 78.2   2.4 44.5   7.1
Fulton-NW (Ranch 5) 5/9/26 1845 68.1   1.2 62   1 54.5   0.9 5.3   0.3 SE | 130 10.4   0.2 0.00 0.00 77.8   3.5 46.3   5.3
Bisordi (Fulton) 5/9/26 1845 67.3   0.7 68   1 56.3   0.4 4.1   0.5 SE | 139 9.1   1.7 0.00 0.00 77.2   3.0 46.2   5.7
Windsor-South (Laughlin Rd) 5/9/26 1845 66.8   0.4 65   0 54.6   0.4 - - - 0.00 0.00 79.8   4.3 46.5   4.9
Fulton-SE (Barnes Rd) 5/9/26 1845 66.1   0.5 63   1 53.4   0.1 0.0   0.0 ESE | 118 4.3   4.3 0.00 0.00 76.6   2.8 47.2   4.9
Fulton-SW (Ranch 21) 5/9/26 1830 66.7   0.9 65   0 54.5   0.8 7.4   0.3 SE | 146 12.5   0.1 0.00 0.00 76.3   3.4 46.1   5.0
NW Santa Rosa (Piner Road) 5/9/26 1845 64.5   0.1 77   1 57.3   0.4 5.2   1.8 SE | 124 10.6   0.3 0.00 0.00 75.5   2.8 45.5   5.8
River Rd South (Denner Ranch) 5/9/26 1845 66.0   0.4 66   2 54.4   1.5 8.0   0.6 SE | 128 12.9   0.0 - - 77.0   2.9 44.5   6.4
West Santa Rosa (LOV Vineyard) 5/9/26 1845 66.4   0.8 67   1 55.0   1.2 1.6   0.0 SSE | 150 6.4   1.1 0.00 0.00 76.3   2.9 45.7   5.4
Guerneville Rd (Prokopakis) 5/9/26 1845 68.4   0.2 63   3 55.2   1.4 - - - 0.00 0.00 80.7   3.2 46.6   4.9
SunnyView Vineyard (SCWC) 5/9/26 1845 64.9   0.3 68   1 54.0   0.8 2.7   0.4 SE | 124 8.7   2.9 0.00 0.00 75.8   3.2 43.6   7.3
Guerneville Rd West (Balletto) 5/9/26 1845 66.6   0.6 71   2 57.0   1.4 5.0   0.1 SE | 140 9.4   0.1 0.00 0.00 76.4   2.5 45.4   5.9
Sanchietti Ranch 5/9/26 1845 66.0   1.3 74   0 57.6   1.3 6.2   0.7 SSE | 167 11.7   2.0 0.00 0.00 76.3   3.1 46.2   5.8
Occidental Rd (Sebastopol) 5/9/26 1845 64.0   0.3 100   0 64.0   0.3 4.1   0.3 SE | 129 10.1   2.0 0.00 0.00 76.2   2.8 45.0   5.7
Harper's Rest (Windsor-West) 5/9/26 1845 71.3   1.5 57   0 55.1   1.6 3.3   0.0 E | 94 7.5   0.4 0.00 0.00 79.2   2.3 44.2   5.7
Lower Westside Rd (Ranch 12) 5/9/26 1845 70.3   1.0 60   1 55.9   1.5 3.6   0.1 SE | 136 6.8   0.1 0.00 0.00 80.4   3.0 45.4   5.9
Guerneville (Laughlin Rd) 5/9/26 1845 70.5   0.8 57   1 54.5   1.3 2.5   0.1 S | 184 4.8   1.0 0.00 0.00 82.1   2.9 48.2   2.6
Korbel (Winery) 5/9/26 1845 74.7   0.0 54   1 57.0   0.6 0.0   0.0 N | 0 0.0   0.0 0.00 0.00 83.4   2.7 49.9   1.8
Forestville (Shone Farms) 5/9/26 1845 68.6   0.5 64   1 55.8   0.8 4.2   0.1 ESE | 119 8.7   1.0 0.00 0.00 81.4   4.8 46.0   3.9
Forestville-NE (Ranch 30) 5/9/26 1845 68.2   0.5 68   0 57.2   0.5 4.5   1.2 ESE | 123 8.6   1.8 0.00 0.00 79.7   3.7 44.7   6.1
Foggy Bend (Ranch 41) 5/9/26 1845 70.8   0.9 65   0 58.6   0.7 1.5   0.3 ESE | 116 4.7   0.0 0.00 0.00 80.2   2.8 46.1   5.8
Last Stop 5/9/26 1845 69.0   0.6 64   1 56.1   0.8 3.6   0.0 E | 97 6.5   0.1 0.00 0.00 80.2   3.2 43.8   7.5
Green Valley Vineyard 5/9/26 1845 68.5   1.7 64   3 56.1   0.2 4.3   2.1 NE | 41 7.2   2.2 0.00 0.00 81.2   6.6 45.4   4.8
Park Royal 5/9/26 1845 65.1   0.3 66   2 53.4   1.1 - - - 0.00 0.00 76.4   3.8 45.2   5.4
Merino 5/9/26 1845 65.0   0.0 73   2 56.2   0.9 4.9   0.3 SE | 140 10.4   1.7 0.00 0.00 75.5   3.3 43.6   7.4
Green Valley (Sanchietti) 5/9/26 1845 69.3   1.1 - - - - - - - 80.5   4.2 44.1   7.6
Keefer Ranch (Green Valley) 5/9/26 1845 68.5   0.7 68   3 57.5   0.6 - - - 0.00 0.00 80.0   4.7 43.8   7.6
Graton-West (Dutton Ranch) 5/9/26 1845 71.2   0.9 68   5 59.9   1.1 3.0   0.4 ENE | 58 5.4   0.5 0.00 0.00 79.8   4.2 45.2   6.2
Graton-South (Mill Station Rd) 5/9/26 1845 70.3   1.3 59   3 55.1   0.0 0.4   0.6 SSE | 165 3.1   0.3 0.00 0.00 75.5   2.7 44.7   5.6
Occidental (Horseshoe Bend) 5/9/26 1845 69.1   4.1 60   7 54.6   0.9 - - - 0.00 0.00 77.3   5.0 49.3   0.8
Sexton Valley (Jacqueline's Blk) 5/9/26 1845 68.7   1.7 66   3 56.8   0.1 1.4   0.4 SW | 218 5.0   0.2 0.00 0.00 74.5   2.9 44.3   6.5
Sebastopol Hills (Burnside Rd) 5/9/26 1845 66.1   0.4 71   0 56.4   0.5 2.6   0.4 SSW | 206 4.5   0.2 0.00 0.00 71.2   1.9 47.3   2.0
Pleasant Hill 5/9/26 1845 65.3   1.1 66   0 53.6   1.1 3.3   0.3 SSE | 168 5.6   0.8 0.00 0.00 73.6   2.7 44.1   5.5
Seaview/Fort Ross (Hirsch) 5/9/26 1845 69.2   2.6 57   6 53.4   5.6 5.7   0.1 NNW | 347 10.2   1.1 0.00 0.00 76.4   1.9 54.4   10.5
Max     74.7 100 64.0 8.0 - 12.9 0.00 0.00 83.4 54.4
Avg     68.1 65 55.9 3.7 - 7.8 0.00 - - -
Min     64.0 54 53.3 0.0 - 0.0 0.00 0.00 71.2 43.6

Southern Sonoma County Latest

20 Stations

15 Minute Data
as of 5/9/26 6:57 PM PDT
Station Date Time Temp (°F) RH (%) Dew Pt (°F) Wind Spd (mph) Wind Dir (°) Wind Gust (mph) Latest Rain (In) Daily Rain (In) Daily Min Temp (°F) Daily Max Temp (°F)
Upper Rincon Valley 5/9/26 1845 67.3   1.0 61   1 53.5   0.5 2.4   0.3 SSE | 160 3.7   0.5 0.00 0.00 49.5   1.5 75.2   3.5
Lower Bennett Valley 5/9/26 1845 63.0   0.2 73   2 54.2   0.6 8.0   2.4 SE | 128 13.1   3.6 0.00 0.00 41.9   7.4 77.0   5.8
Kenwood (Wildwood) 5/9/26 1845 73.3   0.2 51   2 54.2   1.5 2.2   1.3 N | 352 5.7   3.0 0.00 0.00 45.6   4.5 81.5   4.7
Crane Creek (Ranch 62) 5/9/26 1845 61.6   1.1 73   1 52.9   1.5 3.7   0.6 SSE | 168 8.2   2.1 0.00 0.00 45.4   4.4 77.3   6.8
Rohnert Park-West (Stony Point) 5/9/26 1845 62.2   1.3 77   1 54.8   1.7 5.5   1.1 SSE | 164 10.2   1.4 0.00 0.00 42.8   7.6 71.4   3.0
Rice-Spivak Vineyard 5/9/26 1845 64.6   1.1 - - - - - - - 38.1   11.8 72.6   1.8
Cartograph Wines Base 5/9/26 1845 61.1   1.1 80   1 54.9   1.4 5.4   2.3 S | 186 11.9   0.7 0.00 0.00 46.3   3.0 69.5   2.4
Cartograph Wines Remote 5/9/26 1845 64.6   2.3 - - - - - - - 43.7   6.3 71.8   3.9
Penngrove (Asellus) 5/9/26 1845 61.4   0.3 72   2 52.3   1.2 5.4   0.9 S | 182 8.9   1.4 0.00 0.00 42.4   7.4 75.6   6.2
Sonoma Valley (Bedrock) 5/9/26 1845 75.4   2.2 47   6 54.0   1.4 - - - 0.00 0.00 44.0   5.5 81.7   3.0
Sonoma-West (Arnold) 5/9/26 1845 65.6   1.2 66   3 53.8   0.2 8.4   2.3 SW | 222 15.1   4.3 0.00 0.00 44.4   6.9 79.6   4.2
Sonoma Valley HS 5/9/26 1845 65.6   1.7 70   4 55.6   0.1 5.6   2.3 SW | 235 11.1   4.8 0.00 0.00 46.1   5.1 78.1   4.6
Sonoma East (Bundschu01) 5/9/26 1845 67.4   0.8 61   0 53.5   0.9 4.1   1.2 SW | 223 8.1   1.5 0.00 0.00 44.6   6.7 77.4   3.8
Sonoma-SE (Napoli) 5/9/26 1845 67.8   0.3 58   2 52.4   0.9 4.7   0.2 SW | 233 10.1   0.3 0.00 0.00 44.7   6.1 78.5   2.5
Schellville (Sasaki) 2/7/26 1900 53.4   2.2 88   10 49.9   1.0 3.3   1.8 SW | 225 5.8   4.0 0.00 0.00 47.0   0.8 62.8   8.4
Petaluma (Ranch 10) 5/9/26 1845 64.0   0.2 64   3 51.4   0.9 7.5   1.6 WNW | 299 12.2   2.3 0.00 0.00 42.9   8.4 77.3   4.6
Carneros (Ranch 71) 5/9/26 1845 65.5   1.1 62   3 52.4   0.4 10.1   4.3 W | 264 16.0   6.0 0.00 0.00 50.2   0.4 76.7   3.2
Ricci Vineyards (Carneros) 5/9/26 1845 67.5   2.5 60   6 53.1   0.3 6.1   2.9 WNW | 290 9.3   3.2 0.00 0.00 44.3   6.7 78.6   2.8
Carneros Upper (Ranch 81) 5/9/26 1845 65.8   1.5 60   3 51.8   0.1 12.2   4.6 W | 260 17.5   5.0 - - 50.1   0.2 77.4   4.0
Carneros Lower (Ranch 81) 5/9/26 1845 67.2   0.0 62   1 53.8   0.6 0.5   1.6 W | 260 4.1   3.1 0.00 0.01 46.6   4.7 81.0   3.3
Max     75.4 80 55.6 12.2 - 17.5 0.00 0.01 50.2 81.7
Avg     65.8 65 53.4 5.7 - 10.3 0.00 - - -
Min     61.1 47 51.4 0.5 - 3.7 0.00 0.00 38.1 69.5

AQI Map

Map

Hourly Data